sensor_id;sensor_type;location;lat;lon;timestamp;P1;durP1;ratioP1;P2;durP2;ratioP2
26600;SDS011;14241;49.260;10.496;2023-05-07T00:02:06;3.28;;;2.08;;
26600;SDS011;14241;49.260;10.496;2023-05-07T00:04:32;3.17;;;1.70;;
26600;SDS011;14241;49.260;10.496;2023-05-07T00:07:01;2.80;;;1.50;;
26600;SDS011;14241;49.260;10.496;2023-05-07T00:09:27;1.95;;;1.45;;
26600;SDS011;14241;49.260;10.496;2023-05-07T00:11:52;1.60;;;1.50;;
26600;SDS011;14241;49.260;10.496;2023-05-07T00:14:17;2.87;;;1.87;;
26600;SDS011;14241;49.260;10.496;2023-05-07T00:16:42;2.63;;;1.53;;
26600;SDS011;14241;49.260;10.496;2023-05-07T00:19:08;1.67;;;1.15;;
26600;SDS011;14241;49.260;10.496;2023-05-07T00:21:33;2.13;;;1.33;;
26600;SDS011;14241;49.260;10.496;2023-05-07T00:23:58;2.00;;;1.43;;
26600;SDS011;14241;49.260;10.496;2023-05-07T00:26:23;3.40;;;1.80;;
26600;SDS011;14241;49.260;10.496;2023-05-07T00:28:49;2.00;;;1.65;;
26600;SDS011;14241;49.260;10.496;2023-05-07T00:31:14;1.60;;;1.50;;
26600;SDS011;14241;49.260;10.496;2023-05-07T00:33:39;2.55;;;1.60;;
26600;SDS011;14241;49.260;10.496;2023-05-07T00:36:05;3.45;;;1.50;;
26600;SDS011;14241;49.260;10.496;2023-05-07T00:38:30;2.53;;;1.80;;
26600;SDS011;14241;49.260;10.496;2023-05-07T00:40:56;1.60;;;1.50;;
26600;SDS011;14241;49.260;10.496;2023-05-07T00:43:21;3.45;;;1.90;;
26600;SDS011;14241;49.260;10.496;2023-05-07T00:45:46;2.17;;;1.98;;
26600;SDS011;14241;49.260;10.496;2023-05-07T00:48:12;4.35;;;2.33;;
26600;SDS011;14241;49.260;10.496;2023-05-07T00:50:37;2.40;;;1.88;;
26600;SDS011;14241;49.260;10.496;2023-05-07T00:53:03;3.55;;;1.90;;
26600;SDS011;14241;49.260;10.496;2023-05-07T00:55:28;3.70;;;2.00;;
26600;SDS011;14241;49.260;10.496;2023-05-07T00:57:54;4.45;;;2.15;;
26600;SDS011;14241;49.260;10.496;2023-05-07T01:00:19;3.88;;;2.05;;
26600;SDS011;14241;49.260;10.496;2023-05-07T01:02:44;3.58;;;2.22;;
26600;SDS011;14241;49.260;10.496;2023-05-07T01:05:12;3.90;;;2.47;;
26600;SDS011;14241;49.260;10.496;2023-05-07T01:07:38;4.53;;;2.20;;
26600;SDS011;14241;49.260;10.496;2023-05-07T01:10:05;3.45;;;2.22;;
26600;SDS011;14241;49.260;10.496;2023-05-07T01:12:31;4.35;;;2.63;;
26600;SDS011;14241;49.260;10.496;2023-05-07T01:14:57;4.32;;;2.65;;
26600;SDS011;14241;49.260;10.496;2023-05-07T01:17:22;2.72;;;2.13;;
26600;SDS011;14241;49.260;10.496;2023-05-07T01:19:48;6.07;;;2.50;;
26600;SDS011;14241;49.260;10.496;2023-05-07T01:22:13;2.30;;;1.95;;
26600;SDS011;14241;49.260;10.496;2023-05-07T01:24:41;3.47;;;2.03;;
26600;SDS011;14241;49.260;10.496;2023-05-07T01:27:06;3.05;;;2.00;;
26600;SDS011;14241;49.260;10.496;2023-05-07T01:29:31;3.45;;;1.88;;
26600;SDS011;14241;49.260;10.496;2023-05-07T01:31:57;4.40;;;2.55;;
26600;SDS011;14241;49.260;10.496;2023-05-07T01:34:23;3.65;;;2.70;;
26600;SDS011;14241;49.260;10.496;2023-05-07T01:36:50;4.47;;;2.22;;
26600;SDS011;14241;49.260;10.496;2023-05-07T01:39:17;3.63;;;2.20;;
26600;SDS011;14241;49.260;10.496;2023-05-07T01:41:42;4.60;;;2.30;;
26600;SDS011;14241;49.260;10.496;2023-05-07T01:44:08;3.13;;;2.20;;
26600;SDS011;14241;49.260;10.496;2023-05-07T01:46:35;2.50;;;2.30;;
26600;SDS011;14241;49.260;10.496;2023-05-07T01:49:00;4.22;;;2.55;;
26600;SDS011;14241;49.260;10.496;2023-05-07T01:51:26;3.65;;;2.30;;
26600;SDS011;14241;49.260;10.496;2023-05-07T01:53:52;3.00;;;2.33;;
26600;SDS011;14241;49.260;10.496;2023-05-07T01:56:17;4.10;;;2.70;;
26600;SDS011;14241;49.260;10.496;2023-05-07T01:58:44;4.88;;;2.67;;
26600;SDS011;14241;49.260;10.496;2023-05-07T02:01:09;2.92;;;2.40;;
26600;SDS011;14241;49.260;10.496;2023-05-07T02:03:34;2.50;;;2.30;;
26600;SDS011;14241;49.260;10.496;2023-05-07T02:05:59;4.05;;;2.95;;
26600;SDS011;14241;49.260;10.496;2023-05-07T02:08:25;4.25;;;2.72;;
26600;SDS011;14241;49.260;10.496;2023-05-07T02:10:50;4.65;;;2.90;;
26600;SDS011;14241;49.260;10.496;2023-05-07T02:13:16;4.43;;;2.30;;
26600;SDS011;14241;49.260;10.496;2023-05-07T02:15:41;2.60;;;2.40;;
26600;SDS011;14241;49.260;10.496;2023-05-07T02:18:07;4.53;;;2.90;;
26600;SDS011;14241;49.260;10.496;2023-05-07T02:20:34;4.95;;;2.85;;
26600;SDS011;14241;49.260;10.496;2023-05-07T02:22:59;3.92;;;2.88;;
26600;SDS011;14241;49.260;10.496;2023-05-07T02:25:25;4.20;;;2.80;;
26600;SDS011;14241;49.260;10.496;2023-05-07T02:27:50;3.30;;;2.90;;
26600;SDS011;14241;49.260;10.496;2023-05-07T02:30:15;5.40;;;2.90;;
26600;SDS011;14241;49.260;10.496;2023-05-07T02:32:41;4.32;;;2.85;;
26600;SDS011;14241;49.260;10.496;2023-05-07T02:35:06;4.95;;;3.50;;
26600;SDS011;14241;49.260;10.496;2023-05-07T02:37:31;3.35;;;2.80;;
26600;SDS011;14241;49.260;10.496;2023-05-07T02:39:57;3.83;;;2.73;;
26600;SDS011;14241;49.260;10.496;2023-05-07T02:42:22;6.93;;;2.90;;
26600;SDS011;14241;49.260;10.496;2023-05-07T02:44:47;4.00;;;3.03;;
26600;SDS011;14241;49.260;10.496;2023-05-07T02:47:13;3.97;;;2.80;;
26600;SDS011;14241;49.260;10.496;2023-05-07T02:49:38;3.92;;;2.75;;
26600;SDS011;14241;49.260;10.496;2023-05-07T02:52:04;4.18;;;2.80;;
26600;SDS011;14241;49.260;10.496;2023-05-07T02:54:29;6.57;;;3.20;;
26600;SDS011;14241;49.260;10.496;2023-05-07T02:56:55;3.58;;;2.90;;
26600;SDS011;14241;49.260;10.496;2023-05-07T02:59:21;3.78;;;2.58;;
26600;SDS011;14241;49.260;10.496;2023-05-07T03:01:46;3.75;;;2.58;;
26600;SDS011;14241;49.260;10.496;2023-05-07T03:04:12;3.13;;;2.70;;
26600;SDS011;14241;49.260;10.496;2023-05-07T03:06:37;4.72;;;2.70;;
26600;SDS011;14241;49.260;10.496;2023-05-07T03:09:02;4.05;;;2.60;;
26600;SDS011;14241;49.260;10.496;2023-05-07T03:11:28;4.40;;;2.63;;
26600;SDS011;14241;49.260;10.496;2023-05-07T03:13:53;4.88;;;2.47;;
26600;SDS011;14241;49.260;10.496;2023-05-07T03:16:18;2.90;;;2.30;;
26600;SDS011;14241;49.260;10.496;2023-05-07T03:18:44;2.30;;;2.10;;
26600;SDS011;14241;49.260;10.496;2023-05-07T03:21:09;3.67;;;2.40;;
26600;SDS011;14241;49.260;10.496;2023-05-07T03:23:34;5.17;;;2.70;;
26600;SDS011;14241;49.260;10.496;2023-05-07T03:26:00;3.15;;;2.47;;
26600;SDS011;14241;49.260;10.496;2023-05-07T03:28:25;3.37;;;2.40;;
26600;SDS011;14241;49.260;10.496;2023-05-07T03:30:50;3.78;;;2.65;;
26600;SDS011;14241;49.260;10.496;2023-05-07T03:33:15;4.95;;;2.67;;
26600;SDS011;14241;49.260;10.496;2023-05-07T03:35:41;2.72;;;2.35;;
26600;SDS011;14241;49.260;10.496;2023-05-07T03:38:06;3.00;;;2.70;;
26600;SDS011;14241;49.260;10.496;2023-05-07T03:40:32;3.30;;;2.75;;
26600;SDS011;14241;49.260;10.496;2023-05-07T03:42:57;3.40;;;2.95;;
26600;SDS011;14241;49.260;10.496;2023-05-07T03:45:22;5.00;;;2.72;;
26600;SDS011;14241;49.260;10.496;2023-05-07T03:47:47;4.47;;;2.70;;
26600;SDS011;14241;49.260;10.496;2023-05-07T03:50:13;4.75;;;3.10;;
26600;SDS011;14241;49.260;10.496;2023-05-07T03:52:38;3.22;;;2.63;;
26600;SDS011;14241;49.260;10.496;2023-05-07T03:55:03;4.75;;;2.60;;
26600;SDS011;14241;49.260;10.496;2023-05-07T03:57:29;3.70;;;2.75;;
26600;SDS011;14241;49.260;10.496;2023-05-07T03:59:54;4.72;;;2.72;;
26600;SDS011;14241;49.260;10.496;2023-05-07T04:02:20;3.22;;;2.70;;
26600;SDS011;14241;49.260;10.496;2023-05-07T04:04:45;2.65;;;2.45;;
26600;SDS011;14241;49.260;10.496;2023-05-07T04:07:10;4.15;;;2.45;;
26600;SDS011;14241;49.260;10.496;2023-05-07T04:09:35;3.65;;;2.88;;
26600;SDS011;14241;49.260;10.496;2023-05-07T04:12:01;5.20;;;2.78;;
26600;SDS011;14241;49.260;10.496;2023-05-07T04:14:26;3.20;;;2.65;;
26600;SDS011;14241;49.260;10.496;2023-05-07T04:16:51;4.35;;;2.80;;
26600;SDS011;14241;49.260;10.496;2023-05-07T04:19:17;3.47;;;2.65;;
26600;SDS011;14241;49.260;10.496;2023-05-07T04:21:42;3.38;;;3.03;;
26600;SDS011;14241;49.260;10.496;2023-05-07T04:24:07;4.40;;;2.80;;
26600;SDS011;14241;49.260;10.496;2023-05-07T04:26:33;4.70;;;3.10;;
26600;SDS011;14241;49.260;10.496;2023-05-07T04:28:59;3.70;;;3.00;;
26600;SDS011;14241;49.260;10.496;2023-05-07T04:31:24;3.75;;;3.03;;
26600;SDS011;14241;49.260;10.496;2023-05-07T04:33:50;5.00;;;2.85;;
26600;SDS011;14241;49.260;10.496;2023-05-07T04:36:16;5.15;;;3.47;;
26600;SDS011;14241;49.260;10.496;2023-05-07T04:38:41;3.25;;;2.92;;
26600;SDS011;14241;49.260;10.496;2023-05-07T04:41:08;3.22;;;2.92;;
26600;SDS011;14241;49.260;10.496;2023-05-07T04:43:33;4.93;;;2.97;;
26600;SDS011;14241;49.260;10.496;2023-05-07T04:45:59;3.40;;;3.10;;
26600;SDS011;14241;49.260;10.496;2023-05-07T04:48:24;6.25;;;4.07;;
26600;SDS011;14241;49.260;10.496;2023-05-07T04:50:50;6.25;;;4.20;;
26600;SDS011;14241;49.260;10.496;2023-05-07T04:53:16;5.85;;;4.00;;
26600;SDS011;14241;49.260;10.496;2023-05-07T04:55:41;6.63;;;4.25;;
26600;SDS011;14241;49.260;10.496;2023-05-07T04:58:07;5.13;;;4.22;;
26600;SDS011;14241;49.260;10.496;2023-05-07T05:00:32;5.75;;;3.78;;
26600;SDS011;14241;49.260;10.496;2023-05-07T05:02:58;4.40;;;3.75;;
26600;SDS011;14241;49.260;10.496;2023-05-07T05:05:23;6.63;;;3.60;;
26600;SDS011;14241;49.260;10.496;2023-05-07T05:07:48;4.63;;;3.33;;
26600;SDS011;14241;49.260;10.496;2023-05-07T05:10:14;5.60;;;3.73;;
26600;SDS011;14241;49.260;10.496;2023-05-07T05:12:39;6.68;;;3.75;;
26600;SDS011;14241;49.260;10.496;2023-05-07T05:15:05;3.95;;;3.55;;
26600;SDS011;14241;49.260;10.496;2023-05-07T05:17:30;4.82;;;3.75;;
26600;SDS011;14241;49.260;10.496;2023-05-07T05:19:56;5.45;;;3.60;;
26600;SDS011;14241;49.260;10.496;2023-05-07T05:22:21;5.13;;;3.65;;
26600;SDS011;14241;49.260;10.496;2023-05-07T05:24:47;5.30;;;3.53;;
26600;SDS011;14241;49.260;10.496;2023-05-07T05:27:13;3.88;;;3.20;;
26600;SDS011;14241;49.260;10.496;2023-05-07T05:29:38;5.72;;;3.50;;
26600;SDS011;14241;49.260;10.496;2023-05-07T05:32:03;4.00;;;3.60;;
26600;SDS011;14241;49.260;10.496;2023-05-07T05:34:28;4.05;;;3.65;;
26600;SDS011;14241;49.260;10.496;2023-05-07T05:36:54;8.27;;;3.95;;
26600;SDS011;14241;49.260;10.496;2023-05-07T05:39:19;9.32;;;4.03;;
26600;SDS011;14241;49.260;10.496;2023-05-07T05:41:44;6.38;;;3.60;;
26600;SDS011;14241;49.260;10.496;2023-05-07T05:44:10;4.37;;;3.80;;
26600;SDS011;14241;49.260;10.496;2023-05-07T05:46:35;4.68;;;3.90;;
26600;SDS011;14241;49.260;10.496;2023-05-07T05:49:00;4.00;;;3.60;;
26600;SDS011;14241;49.260;10.496;2023-05-07T05:51:26;5.40;;;3.63;;
26600;SDS011;14241;49.260;10.496;2023-05-07T05:53:51;5.43;;;4.35;;
26600;SDS011;14241;49.260;10.496;2023-05-07T05:56:16;4.18;;;3.70;;
26600;SDS011;14241;49.260;10.496;2023-05-07T05:58:42;4.32;;;3.92;;
26600;SDS011;14241;49.260;10.496;2023-05-07T06:01:07;5.75;;;4.38;;
26600;SDS011;14241;49.260;10.496;2023-05-07T06:03:32;5.38;;;3.92;;
26600;SDS011;14241;49.260;10.496;2023-05-07T06:05:59;5.95;;;4.00;;
26600;SDS011;14241;49.260;10.496;2023-05-07T06:08:25;4.70;;;4.20;;
26600;SDS011;14241;49.260;10.496;2023-05-07T06:10:51;4.72;;;4.22;;
26600;SDS011;14241;49.260;10.496;2023-05-07T06:13:16;4.90;;;4.38;;
26600;SDS011;14241;49.260;10.496;2023-05-07T06:15:41;4.90;;;4.32;;
26600;SDS011;14241;49.260;10.496;2023-05-07T06:18:07;5.60;;;4.63;;
26600;SDS011;14241;49.260;10.496;2023-05-07T06:20:32;4.80;;;4.30;;
26600;SDS011;14241;49.260;10.496;2023-05-07T06:22:57;6.13;;;4.95;;
26600;SDS011;14241;49.260;10.496;2023-05-07T06:25:22;5.80;;;5.20;;
26600;SDS011;14241;49.260;10.496;2023-05-07T06:27:48;6.82;;;4.47;;
26600;SDS011;14241;49.260;10.496;2023-05-07T06:30:13;7.20;;;4.70;;
26600;SDS011;14241;49.260;10.496;2023-05-07T06:32:39;6.22;;;3.95;;
26600;SDS011;14241;49.260;10.496;2023-05-07T06:35:05;5.90;;;4.40;;
26600;SDS011;14241;49.260;10.496;2023-05-07T06:37:30;5.50;;;4.78;;
26600;SDS011;14241;49.260;10.496;2023-05-07T06:39:55;5.68;;;4.60;;
26600;SDS011;14241;49.260;10.496;2023-05-07T06:42:21;4.97;;;4.47;;
26600;SDS011;14241;49.260;10.496;2023-05-07T06:44:46;5.30;;;4.80;;
26600;SDS011;14241;49.260;10.496;2023-05-07T06:47:11;6.47;;;4.55;;
26600;SDS011;14241;49.260;10.496;2023-05-07T06:49:36;5.60;;;4.40;;
26600;SDS011;14241;49.260;10.496;2023-05-07T06:52:02;5.40;;;4.53;;
26600;SDS011;14241;49.260;10.496;2023-05-07T06:54:27;5.32;;;4.63;;
26600;SDS011;14241;49.260;10.496;2023-05-07T06:56:52;7.80;;;4.83;;
26600;SDS011;14241;49.260;10.496;2023-05-07T06:59:18;4.80;;;4.32;;
26600;SDS011;14241;49.260;10.496;2023-05-07T07:01:44;7.20;;;4.78;;
26600;SDS011;14241;49.260;10.496;2023-05-07T07:04:09;5.38;;;4.72;;
26600;SDS011;14241;49.260;10.496;2023-05-07T07:06:35;5.43;;;4.93;;
26600;SDS011;14241;49.260;10.496;2023-05-07T07:09:00;6.70;;;5.10;;
26600;SDS011;14241;49.260;10.496;2023-05-07T07:11:25;7.95;;;5.20;;
26600;SDS011;14241;49.260;10.496;2023-05-07T07:13:50;5.43;;;4.43;;
26600;SDS011;14241;49.260;10.496;2023-05-07T07:16:16;7.28;;;4.70;;
26600;SDS011;14241;49.260;10.496;2023-05-07T07:18:41;6.82;;;4.85;;
26600;SDS011;14241;49.260;10.496;2023-05-07T07:21:06;7.20;;;4.78;;
26600;SDS011;14241;49.260;10.496;2023-05-07T07:23:32;8.32;;;4.90;;
26600;SDS011;14241;49.260;10.496;2023-05-07T07:25:57;6.75;;;4.82;;
26600;SDS011;14241;49.260;10.496;2023-05-07T07:28:23;6.03;;;4.70;;
26600;SDS011;14241;49.260;10.496;2023-05-07T07:30:48;6.10;;;4.68;;
26600;SDS011;14241;49.260;10.496;2023-05-07T07:33:13;6.05;;;4.88;;
26600;SDS011;14241;49.260;10.496;2023-05-07T07:35:39;5.50;;;4.65;;
26600;SDS011;14241;49.260;10.496;2023-05-07T07:38:04;5.45;;;4.88;;
26600;SDS011;14241;49.260;10.496;2023-05-07T07:40:30;5.20;;;4.70;;
26600;SDS011;14241;49.260;10.496;2023-05-07T07:42:56;7.03;;;4.83;;
26600;SDS011;14241;49.260;10.496;2023-05-07T07:45:21;5.65;;;4.65;;
26600;SDS011;14241;49.260;10.496;2023-05-07T07:47:47;5.90;;;4.78;;
26600;SDS011;14241;49.260;10.496;2023-05-07T07:50:12;4.70;;;4.27;;
26600;SDS011;14241;49.260;10.496;2023-05-07T07:52:37;7.20;;;4.50;;
26600;SDS011;14241;49.260;10.496;2023-05-07T07:55:02;5.18;;;4.32;;
26600;SDS011;14241;49.260;10.496;2023-05-07T07:57:28;5.40;;;4.57;;
26600;SDS011;14241;49.260;10.496;2023-05-07T07:59:53;5.03;;;4.53;;
26600;SDS011;14241;49.260;10.496;2023-05-07T08:02:19;7.47;;;4.43;;
26600;SDS011;14241;49.260;10.496;2023-05-07T08:04:45;4.13;;;3.72;;
26600;SDS011;14241;49.260;10.496;2023-05-07T08:07:10;4.82;;;4.22;;
26600;SDS011;14241;49.260;10.496;2023-05-07T08:09:38;5.95;;;4.30;;
26600;SDS011;14241;49.260;10.496;2023-05-07T08:12:04;6.63;;;4.63;;
26600;SDS011;14241;49.260;10.496;2023-05-07T08:14:30;6.22;;;5.10;;
26600;SDS011;14241;49.260;10.496;2023-05-07T08:16:55;7.40;;;4.70;;
26600;SDS011;14241;49.260;10.496;2023-05-07T08:19:20;4.72;;;4.30;;
26600;SDS011;14241;49.260;10.496;2023-05-07T08:21:46;7.60;;;4.43;;
26600;SDS011;14241;49.260;10.496;2023-05-07T08:24:15;5.40;;;4.35;;
26600;SDS011;14241;49.260;10.496;2023-05-07T08:26:41;9.15;;;4.82;;
26600;SDS011;14241;49.260;10.496;2023-05-07T08:29:06;5.47;;;4.97;;
26600;SDS011;14241;49.260;10.496;2023-05-07T08:31:31;5.00;;;4.50;;
26600;SDS011;14241;49.260;10.496;2023-05-07T08:33:57;7.77;;;4.83;;
26600;SDS011;14241;49.260;10.496;2023-05-07T08:36:24;5.88;;;5.25;;
26600;SDS011;14241;49.260;10.496;2023-05-07T08:38:50;5.43;;;4.72;;
26600;SDS011;14241;49.260;10.496;2023-05-07T08:41:16;7.28;;;5.38;;
26600;SDS011;14241;49.260;10.496;2023-05-07T08:43:41;8.38;;;4.97;;
26600;SDS011;14241;49.260;10.496;2023-05-07T08:46:07;6.03;;;4.82;;
26600;SDS011;14241;49.260;10.496;2023-05-07T08:48:33;4.90;;;4.40;;
26600;SDS011;14241;49.260;10.496;2023-05-07T08:50:59;5.55;;;4.95;;
26600;SDS011;14241;49.260;10.496;2023-05-07T08:53:24;5.68;;;5.07;;
26600;SDS011;14241;49.260;10.496;2023-05-07T08:55:49;6.18;;;5.10;;
26600;SDS011;14241;49.260;10.496;2023-05-07T08:58:15;7.22;;;4.80;;
26600;SDS011;14241;49.260;10.496;2023-05-07T09:00:40;5.13;;;4.60;;
26600;SDS011;14241;49.260;10.496;2023-05-07T09:03:06;5.68;;;4.72;;
26600;SDS011;14241;49.260;10.496;2023-05-07T09:05:32;5.10;;;4.60;;
26600;SDS011;14241;49.260;10.496;2023-05-07T09:08:01;6.05;;;5.03;;
26600;SDS011;14241;49.260;10.496;2023-05-07T09:10:27;5.72;;;4.45;;
26600;SDS011;14241;49.260;10.496;2023-05-07T09:12:52;7.82;;;4.95;;
26600;SDS011;14241;49.260;10.496;2023-05-07T09:15:18;6.15;;;5.53;;
26600;SDS011;14241;49.260;10.496;2023-05-07T09:17:43;5.90;;;5.28;;
26600;SDS011;14241;49.260;10.496;2023-05-07T09:20:08;7.80;;;5.43;;
26600;SDS011;14241;49.260;10.496;2023-05-07T09:22:36;6.35;;;5.00;;
26600;SDS011;14241;49.260;10.496;2023-05-07T09:25:02;5.18;;;4.68;;
26600;SDS011;14241;49.260;10.496;2023-05-07T09:27:27;5.50;;;4.90;;
26600;SDS011;14241;49.260;10.496;2023-05-07T09:29:52;4.82;;;4.35;;
26600;SDS011;14241;49.260;10.496;2023-05-07T09:32:18;5.95;;;4.85;;
26600;SDS011;14241;49.260;10.496;2023-05-07T09:34:43;6.13;;;5.25;;
26600;SDS011;14241;49.260;10.496;2023-05-07T09:37:09;5.68;;;4.88;;
26600;SDS011;14241;49.260;10.496;2023-05-07T09:39:41;5.15;;;4.18;;
26600;SDS011;14241;49.260;10.496;2023-05-07T09:42:07;6.45;;;4.60;;
26600;SDS011;14241;49.260;10.496;2023-05-07T09:44:33;7.20;;;4.65;;
26600;SDS011;14241;49.260;10.496;2023-05-07T09:46:59;7.63;;;5.50;;
26600;SDS011;14241;49.260;10.496;2023-05-07T09:49:25;5.35;;;4.45;;
26600;SDS011;14241;49.260;10.496;2023-05-07T09:51:52;6.50;;;4.35;;
26600;SDS011;14241;49.260;10.496;2023-05-07T09:54:18;6.13;;;4.53;;
26600;SDS011;14241;49.260;10.496;2023-05-07T09:56:44;10.02;;;4.32;;
26600;SDS011;14241;49.260;10.496;2023-05-07T09:59:13;5.80;;;4.13;;
26600;SDS011;14241;49.260;10.496;2023-05-07T10:01:40;6.15;;;3.95;;
26600;SDS011;14241;49.260;10.496;2023-05-07T10:04:06;5.95;;;4.55;;
26600;SDS011;14241;49.260;10.496;2023-05-07T10:06:33;6.10;;;4.45;;
26600;SDS011;14241;49.260;10.496;2023-05-07T10:08:59;5.10;;;3.72;;
26600;SDS011;14241;49.260;10.496;2023-05-07T10:11:24;7.63;;;4.28;;
26600;SDS011;14241;49.260;10.496;2023-05-07T10:13:49;5.75;;;3.85;;
26600;SDS011;14241;49.260;10.496;2023-05-07T10:16:16;4.85;;;4.35;;
26600;SDS011;14241;49.260;10.496;2023-05-07T10:18:42;6.13;;;4.10;;
26600;SDS011;14241;49.260;10.496;2023-05-07T10:21:08;5.28;;;4.63;;
26600;SDS011;14241;49.260;10.496;2023-05-07T10:23:36;6.22;;;4.45;;
26600;SDS011;14241;49.260;10.496;2023-05-07T10:26:02;5.03;;;4.20;;
26600;SDS011;14241;49.260;10.496;2023-05-07T10:28:28;5.85;;;3.80;;
26600;SDS011;14241;49.260;10.496;2023-05-07T10:30:58;5.32;;;3.95;;
26600;SDS011;14241;49.260;10.496;2023-05-07T10:33:27;5.05;;;4.43;;
26600;SDS011;14241;49.260;10.496;2023-05-07T10:35:55;6.20;;;3.67;;
26600;SDS011;14241;49.260;10.496;2023-05-07T10:38:22;5.43;;;3.38;;
26600;SDS011;14241;49.260;10.496;2023-05-07T10:40:47;4.93;;;3.40;;
26600;SDS011;14241;49.260;10.496;2023-05-07T10:43:13;4.85;;;3.53;;
26600;SDS011;14241;49.260;10.496;2023-05-07T10:45:38;4.10;;;3.20;;
26600;SDS011;14241;49.260;10.496;2023-05-07T10:50:38;4.72;;;3.72;;
26600;SDS011;14241;49.260;10.496;2023-05-07T10:55:41;4.00;;;2.95;;
26600;SDS011;14241;49.260;10.496;2023-05-07T10:58:26;4.00;;;3.03;;
26600;SDS011;14241;49.260;10.496;2023-05-07T11:00:59;4.95;;;3.00;;
26600;SDS011;14241;49.260;10.496;2023-05-07T11:03:25;5.53;;;3.15;;
26600;SDS011;14241;49.260;10.496;2023-05-07T11:06:09;5.13;;;3.10;;
26600;SDS011;14241;49.260;10.496;2023-05-07T11:08:54;3.72;;;2.55;;
26600;SDS011;14241;49.260;10.496;2023-05-07T11:11:20;3.13;;;2.20;;
26600;SDS011;14241;49.260;10.496;2023-05-07T11:13:48;5.50;;;2.15;;
26600;SDS011;14241;49.260;10.496;2023-05-07T11:16:17;4.07;;;2.25;;
26600;SDS011;14241;49.260;10.496;2023-05-07T11:18:50;3.03;;;2.20;;
26600;SDS011;14241;49.260;10.496;2023-05-07T11:21:32;2.42;;;2.00;;
26600;SDS011;14241;49.260;10.496;2023-05-07T11:23:58;3.85;;;2.53;;
26600;SDS011;14241;49.260;10.496;2023-05-07T11:26:23;3.50;;;2.10;;
26600;SDS011;14241;49.260;10.496;2023-05-07T11:28:50;2.28;;;1.92;;
26600;SDS011;14241;49.260;10.496;2023-05-07T11:31:17;3.67;;;2.00;;
26600;SDS011;14241;49.260;10.496;2023-05-07T11:33:45;2.58;;;1.85;;
26600;SDS011;14241;49.260;10.496;2023-05-07T11:36:10;2.47;;;1.77;;
26600;SDS011;14241;49.260;10.496;2023-05-07T11:38:37;3.35;;;1.80;;
26600;SDS011;14241;49.260;10.496;2023-05-07T11:41:02;7.13;;;1.73;;
26600;SDS011;14241;49.260;10.496;2023-05-07T11:43:30;2.95;;;1.80;;
26600;SDS011;14241;49.260;10.496;2023-05-07T11:45:58;3.30;;;1.42;;
26600;SDS011;14241;49.260;10.496;2023-05-07T11:48:29;2.40;;;1.60;;
26600;SDS011;14241;49.260;10.496;2023-05-07T11:53:27;1.92;;;1.70;;
26600;SDS011;14241;49.260;10.496;2023-05-07T11:55:53;3.33;;;1.80;;
26600;SDS011;14241;49.260;10.496;2023-05-07T11:58:22;2.33;;;1.50;;
26600;SDS011;14241;49.260;10.496;2023-05-07T12:00:48;2.97;;;1.63;;
26600;SDS011;14241;49.260;10.496;2023-05-07T12:03:14;1.92;;;1.38;;
26600;SDS011;14241;49.260;10.496;2023-05-07T12:05:39;3.20;;;2.10;;
26600;SDS011;14241;49.260;10.496;2023-05-07T12:08:07;2.45;;;1.70;;
26600;SDS011;14241;49.260;10.496;2023-05-07T12:10:32;1.42;;;1.13;;
26600;SDS011;14241;49.260;10.496;2023-05-07T12:12:57;2.00;;;1.50;;
26600;SDS011;14241;49.260;10.496;2023-05-07T12:15:23;2.10;;;1.23;;
26600;SDS011;14241;49.260;10.496;2023-05-07T12:17:48;4.65;;;1.40;;
26600;SDS011;14241;49.260;10.496;2023-05-07T12:20:13;1.80;;;1.40;;
26600;SDS011;14241;49.260;10.496;2023-05-07T12:22:40;1.77;;;1.20;;
26600;SDS011;14241;49.260;10.496;2023-05-07T12:25:06;3.95;;;1.40;;
26600;SDS011;14241;49.260;10.496;2023-05-07T12:27:31;2.13;;;1.42;;
26600;SDS011;14241;49.260;10.496;2023-05-07T12:29:57;2.30;;;1.20;;
26600;SDS011;14241;49.260;10.496;2023-05-07T12:32:22;2.40;;;1.17;;
26600;SDS011;14241;49.260;10.496;2023-05-07T12:34:51;1.58;;;1.00;;
26600;SDS011;14241;49.260;10.496;2023-05-07T12:37:16;2.17;;;1.30;;
26600;SDS011;14241;49.260;10.496;2023-05-07T12:39:46;1.83;;;1.17;;
26600;SDS011;14241;49.260;10.496;2023-05-07T12:42:14;2.58;;;1.25;;
26600;SDS011;14241;49.260;10.496;2023-05-07T12:44:40;3.03;;;0.88;;
26600;SDS011;14241;49.260;10.496;2023-05-07T12:47:05;2.67;;;0.93;;
26600;SDS011;14241;49.260;10.496;2023-05-07T12:49:30;1.35;;;1.10;;
26600;SDS011;14241;49.260;10.496;2023-05-07T12:51:56;2.17;;;1.00;;
26600;SDS011;14241;49.260;10.496;2023-05-07T12:54:39;3.80;;;1.30;;
26600;SDS011;14241;49.260;10.496;2023-05-07T12:57:05;3.55;;;1.25;;
26600;SDS011;14241;49.260;10.496;2023-05-07T12:59:34;1.40;;;1.13;;
26600;SDS011;14241;49.260;10.496;2023-05-07T13:02:01;1.15;;;1.05;;
26600;SDS011;14241;49.260;10.496;2023-05-07T13:04:26;2.60;;;1.30;;
26600;SDS011;14241;49.260;10.496;2023-05-07T13:06:51;1.10;;;1.00;;
26600;SDS011;14241;49.260;10.496;2023-05-07T13:09:16;2.28;;;1.40;;
26600;SDS011;14241;49.260;10.496;2023-05-07T13:11:42;2.33;;;1.13;;
26600;SDS011;14241;49.260;10.496;2023-05-07T13:14:08;4.63;;;1.30;;
26600;SDS011;14241;49.260;10.496;2023-05-07T13:16:33;1.38;;;1.17;;
26600;SDS011;14241;49.260;10.496;2023-05-07T13:18:59;1.80;;;1.20;;
26600;SDS011;14241;49.260;10.496;2023-05-07T13:21:24;2.10;;;1.20;;
26600;SDS011;14241;49.260;10.496;2023-05-07T13:23:49;2.10;;;1.10;;
26600;SDS011;14241;49.260;10.496;2023-05-07T13:26:14;1.57;;;0.90;;
26600;SDS011;14241;49.260;10.496;2023-05-07T13:28:40;1.00;;;0.93;;
26600;SDS011;14241;49.260;10.496;2023-05-07T13:31:05;1.33;;;1.10;;
26600;SDS011;14241;49.260;10.496;2023-05-07T13:33:30;1.33;;;1.00;;
26600;SDS011;14241;49.260;10.496;2023-05-07T13:35:55;2.20;;;1.13;;
26600;SDS011;14241;49.260;10.496;2023-05-07T13:38:22;2.58;;;1.00;;
26600;SDS011;14241;49.260;10.496;2023-05-07T13:40:47;2.17;;;1.10;;
26600;SDS011;14241;49.260;10.496;2023-05-07T13:43:12;6.13;;;1.13;;
26600;SDS011;14241;49.260;10.496;2023-05-07T13:45:38;1.88;;;0.93;;
26600;SDS011;14241;49.260;10.496;2023-05-07T13:48:03;1.55;;;1.00;;
26600;SDS011;14241;49.260;10.496;2023-05-07T13:50:28;2.60;;;1.20;;
26600;SDS011;14241;49.260;10.496;2023-05-07T13:52:54;1.40;;;1.17;;
26600;SDS011;14241;49.260;10.496;2023-05-07T13:55:20;3.33;;;1.10;;
26600;SDS011;14241;49.260;10.496;2023-05-07T13:57:46;1.58;;;1.00;;
26600;SDS011;14241;49.260;10.496;2023-05-07T14:00:12;1.17;;;0.90;;
26600;SDS011;14241;49.260;10.496;2023-05-07T14:02:37;1.85;;;0.88;;
26600;SDS011;14241;49.260;10.496;2023-05-07T14:05:02;0.93;;;0.80;;
26600;SDS011;14241;49.260;10.496;2023-05-07T14:07:28;2.28;;;0.77;;
26600;SDS011;14241;49.260;10.496;2023-05-07T14:09:54;1.67;;;0.90;;
26600;SDS011;14241;49.260;10.496;2023-05-07T14:12:19;1.00;;;0.90;;
26600;SDS011;14241;49.260;10.496;2023-05-07T14:14:44;1.50;;;0.98;;
26600;SDS011;14241;49.260;10.496;2023-05-07T14:17:10;2.13;;;1.13;;
26600;SDS011;14241;49.260;10.496;2023-05-07T14:19:35;3.90;;;0.80;;
26600;SDS011;14241;49.260;10.496;2023-05-07T14:22:01;1.30;;;0.90;;
26600;SDS011;14241;49.260;10.496;2023-05-07T14:24:26;1.67;;;0.85;;
26600;SDS011;14241;49.260;10.496;2023-05-07T14:26:51;1.50;;;0.85;;
26600;SDS011;14241;49.260;10.496;2023-05-07T14:29:17;1.13;;;0.90;;
26600;SDS011;14241;49.260;10.496;2023-05-07T14:31:44;1.77;;;0.85;;
26600;SDS011;14241;49.260;10.496;2023-05-07T14:34:10;2.53;;;1.00;;